Time;durP1;ratioP1;P1;durP2;ratioP2;P2;SDS_P1;SDS_P2;PMS_P1;PMS_P2;Temp;Humidity;BMP_temperature;BMP_pressure;BME280_temperature;BME280_humidity;BME280_pressure;Samples;Min_cycle;Max_cycle;Signal;HPM_P1;HPM_P2
2021/12/25 00:01:43;;;;;;;4.37;3.97;;;;;;;-2.01;100.00;92085.88;4883336;29;20198;-73
2021/12/25 00:04:10;;;;;;;3.03;2.90;;;;;;;-2.22;100.00;92076.09;4883829;29;20282;-73
2021/12/25 00:06:38;;;;;;;4.07;3.77;;;;;;;-2.58;100.00;92017.69;4882683;29;20228;-73
2021/12/25 00:09:06;;;;;;;11.63;4.07;;;;;;;-2.05;100.00;92116.41;4883006;29;20591;-73
2021/12/25 00:11:34;;;;;;;7.03;2.87;;;;;;;-2.46;100.00;92047.31;4883166;29;20560;-73
2021/12/25 00:14:09;;;;;;;2.27;2.23;;;;;;;-2.04;100.00;92100.75;4882387;29;20639;-73
2021/12/25 00:16:37;;;;;;;1.53;1.53;;;;;;;-2.17;100.00;92054.63;4881555;29;20646;-73
2021/12/25 00:19:06;;;;;;;3.00;1.50;;;;;;;-1.73;100.00;92112.13;4883741;29;20589;-73
2021/12/25 00:21:34;;;;;;;2.20;2.03;;;;;;;-1.86;100.00;92062.72;4882866;29;20564;-73
2021/12/25 00:24:02;;;;;;;1.80;1.70;;;;;;;-1.55;100.00;92090.56;4882395;29;20686;-73
2021/12/25 00:32:29;;;;;;;4.80;4.50;;;;;;;-1.58;100.00;92093.06;4881493;29;20612;-73
2021/12/25 00:34:58;;;;;;;6.43;5.83;;;;;;;-1.63;100.00;92120.31;4881956;29;20591;-73
2021/12/25 00:37:26;;;;;;;10.30;9.30;;;;;;;-1.74;98.31;92139.34;4883043;29;20482;-73
2021/12/25 00:39:55;;;;;;;14.23;8.30;;;;;;;-1.96;98.60;92135.34;4882384;29;20198;-73
2021/12/25 00:42:23;;;;;;;9.63;7.73;;;;;;;-2.60;99.96;92077.06;4882943;29;20676;-73
2021/12/25 00:44:50;;;;;;;6.40;5.47;;;;;;;-2.96;100.00;92059.81;4881928;29;20591;-72
2021/12/25 00:47:18;;;;;;;13.10;7.13;;;;;;;-3.00;100.00;92110.91;4882356;29;20664;-73
2021/12/25 00:49:47;;;;;;;7.20;6.27;;;;;;;-3.14;100.00;92111.72;4882515;29;20259;-73
2021/12/25 00:52:16;;;;;;;4.30;3.90;;;;;;;-3.20;100.00;92106.78;4881550;29;20562;-73
2021/12/25 00:54:43;;;;;;;5.67;5.27;;;;;;;-3.53;100.00;92050.81;4881121;29;20253;-72
2021/12/25 00:57:11;;;;;;;10.00;4.40;;;;;;;-3.18;100.00;92096.09;4882274;29;20489;-72
2021/12/25 00:59:38;;;;;;;8.10;2.57;;;;;;;-3.52;100.00;92025.31;4882035;29;20619;-72
2021/12/25 01:02:05;;;;;;;3.53;3.33;;;;;;;-3.08;100.00;92054.91;4881362;29;20471;-72
2021/12/25 01:04:33;;;;;;;3.60;3.30;;;;;;;-3.11;100.00;92003.88;4881226;29;20615;-72
2021/12/25 01:07:00;;;;;;;3.63;3.43;;;;;;;-2.53;100.00;92078.66;4881753;29;20484;-72
2021/12/25 01:09:29;;;;;;;4.93;2.47;;;;;;;-2.53;100.00;92067.94;4882372;29;20285;-72
2021/12/25 01:11:57;;;;;;;1.83;1.73;;;;;;;-2.52;100.00;92070.41;4881296;29;20502;-72
2021/12/25 01:14:33;;;;;;;2.83;1.00;;;;;;;-2.31;100.00;92095.91;4881711;29;20698;-73
2021/12/25 01:17:20;;;;;;;8.43;7.63;;;;;;;-2.32;100.00;92100.03;4882279;29;20269;-72
2021/12/25 01:25:48;;;;;;;9.80;4.73;;;;;;;-2.61;100.00;92091.88;4880923;29;20229;-72
2021/12/25 01:31:11;;;;;;;6.17;4.67;;;;;;;-2.94;100.00;92102.66;4865640;29;20689;-72
2021/12/25 01:36:55;;;;;;;7.23;3.77;;;;;;;-2.96;100.00;92106.75;4871354;29;20201;-72
2021/12/25 01:39:29;;;;;;;3.80;3.13;;;;;;;-3.11;100.00;92091.97;4881189;29;20559;-72
2021/12/25 01:47:44;;;;;;;5.57;4.63;;;;;;;-3.03;100.00;92103.47;4881170;29;20190;-72
2021/12/25 01:47:51;;;;;;;3.33;3.23;;;;;;;-2.71;100.00;92119.91;4881184;29;20291;-72
2021/12/25 01:50:21;;;;;;;2.53;2.43;;;;;;;-2.59;100.00;92112.47;4880981;29;20359;-72
2021/12/25 01:52:51;;;;;;;5.03;3.07;;;;;;;-2.63;100.00;92094.34;4881116;29;20484;-72
2021/12/25 01:55:21;;;;;;;2.37;2.33;;;;;;;-2.45;100.00;92110.78;4880817;29;20226;-72
2021/12/25 01:57:50;;;;;;;2.00;1.90;;;;;;;-2.53;100.00;92078.66;4880950;29;20522;-72
2021/12/25 02:00:23;;;;;;;4.07;2.87;;;;;;;-2.43;100.00;92095.94;4880603;29;20611;-72
2021/12/25 02:02:51;;;;;;;2.13;2.03;;;;;;;-2.44;100.00;92091.81;4880946;29;20475;-72
2021/12/25 02:05:19;;;;;;;1.17;1.17;;;;;;;-2.27;100.00;92104.97;4880586;29;20564;-72
2021/12/25 02:07:47;;;;;;;2.00;1.93;;;;;;;-2.49;100.00;92059.72;4880564;29;20592;-72
2021/12/25 02:10:16;;;;;;;1.67;1.57;;;;;;;-2.12;100.00;92107.38;4880508;29;20477;-72
2021/12/25 02:12:44;;;;;;;1.13;1.13;;;;;;;-2.25;100.00;92086.78;4881083;29;20213;-72
2021/12/25 02:15:17;;;;;;;1.10;1.10;;;;;;;-2.29;100.00;92062.91;4881186;29;20569;-72
2021/12/25 02:18:03;;;;;;;2.80;2.70;;;;;;;-1.90;100.00;92103.97;4880688;29;20462;-72
2021/12/25 02:20:41;;;;;;;3.53;3.43;;;;;;;-1.81;100.00;92116.31;4881321;29;20292;-72
2021/12/25 02:23:14;;;;;;;4.20;4.03;;;;;;;-1.89;100.00;92129.53;4879694;29;20623;-72
2021/12/25 02:25:43;;;;;;;5.67;5.13;;;;;;;-2.13;97.31;92143.66;4880473;29;20679;-72
2021/12/25 02:28:12;;;;;;;5.47;5.20;;;;;;;-2.35;97.79;92137.13;4880395;29;20585;-72
2021/12/25 02:30:41;;;;;;;3.33;3.23;;;;;;;-2.68;100.00;92122.38;4881290;29;20474;-72
2021/12/25 02:33:09;;;;;;;5.17;3.57;;;;;;;-2.93;100.00;92109.25;4880239;29;20670;-72
2021/12/25 02:35:38;;;;;;;15.77;6.77;;;;;;;-2.76;100.00;92121.56;4880274;29;20654;-72
2021/12/25 02:38:06;;;;;;;7.00;6.40;;;;;;;-2.84;100.00;92113.34;4879729;29;20606;-72
2021/12/25 02:40:34;;;;;;;5.60;4.90;;;;;;;-3.14;100.00;92089.47;4879051;29;20638;-71
2021/12/25 02:43:01;;;;;;;5.37;3.93;;;;;;;-3.18;100.00;92100.19;4861591;29;20471;-72
2021/12/25 02:45:28;;;;;;;5.30;4.40;;;;;;;-3.04;100.00;92105.94;4862175;29;20202;-72
2021/12/25 02:47:58;;;;;;;4.77;4.37;;;;;;;-2.97;100.00;92101.00;4869656;29;20592;-72
2021/12/25 02:50:27;;;;;;;3.13;2.73;;;;;;;-2.93;100.00;92087.81;4879990;29;20619;-72
2021/12/25 02:52:57;;;;;;;15.03;6.07;;;;;;;-2.80;100.00;92096.03;4879672;29;20511;-72
2021/12/25 02:55:25;;;;;;;5.13;4.73;;;;;;;-2.81;100.00;92076.25;4879747;29;20248;-72
2021/12/25 02:57:53;;;;;;;7.63;4.33;;;;;;;-2.69;100.00;92079.53;4879831;29;20505;-72
2021/12/25 03:00:25;;;;;;;4.53;3.83;;;;;;;-2.73;100.00;92068.00;4880136;29;20206;-72
2021/12/25 03:02:53;;;;;;;14.80;4.30;;;;;;;-2.61;100.00;92082.81;4879835;29;20619;-72
2021/12/25 03:05:21;;;;;;;5.07;4.90;;;;;;;-2.48;100.00;92090.19;4879068;29;20205;-72
2021/12/25 03:07:52;;;;;;;12.60;4.20;;;;;;;-2.46;100.00;92103.38;4880263;29;20560;-72
2021/12/25 03:10:21;;;;;;;9.17;5.67;;;;;;;-2.49;100.00;92113.28;4879791;29;20570;-72
2021/12/25 03:12:52;;;;;;;8.33;6.90;;;;;;;-2.54;98.71;92116.59;4880007;29;20579;-72
2021/12/25 03:15:28;;;;;;;8.67;7.83;;;;;;;-2.68;96.98;92125.66;4861045;29;20291;-72
2021/12/25 03:17:56;;;;;;;7.17;5.40;;;;;;;-2.96;98.02;92111.72;4860945;29;20537;-72
2021/12/25 03:20:24;;;;;;;8.63;5.43;;;;;;;-3.30;100.00;92100.19;4870029;29;20508;-72
2021/12/25 03:22:52;;;;;;;4.40;3.83;;;;;;;-3.55;100.00;92101.84;4879104;29;20264;-72
2021/12/25 03:25:22;;;;;;;6.17;5.60;;;;;;;-3.50;100.00;92097.72;4879916;29;20230;-72
2021/12/25 03:27:51;;;;;;;6.53;4.33;;;;;;;-3.54;100.00;92109.22;4879821;29;20464;-71
2021/12/25 03:30:21;;;;;;;3.60;3.53;;;;;;;-3.60;100.00;92091.13;4879221;29;20494;-72
2021/12/25 03:32:49;;;;;;;4.33;3.97;;;;;;;-3.64;100.00;92084.53;4879998;29;20249;-72
2021/12/25 03:35:16;;;;;;;6.03;5.43;;;;;;;-3.59;100.00;92076.31;4879603;29;20490;-71
2021/12/25 03:37:44;;;;;;;4.93;3.83;;;;;;;-3.46;100.00;92087.84;4879239;29;20496;-71
2021/12/25 03:40:14;;;;;;;7.20;5.30;;;;;;;-3.42;100.00;92096.06;4880278;29;20578;-71
2021/12/25 03:42:43;;;;;;;5.67;3.97;;;;;;;-3.37;100.00;92105.13;4879148;29;20588;-71
2021/12/25 03:45:11;;;;;;;4.87;4.57;;;;;;;-3.38;100.00;92097.75;4879765;29;20537;-71
2021/12/25 03:47:40;;;;;;;10.00;4.67;;;;;;;-3.24;100.00;92112.53;4879123;29;20202;-70
2021/12/25 03:53:22;;;;;;;4.63;4.23;;;;;;;-3.19;100.00;92096.06;4882779;29;20456;-71
2021/12/25 03:58:38;;;;;;;4.03;3.83;;;;;;;-2.92;100.00;92120.75;4882810;29;20626;-71
2021/12/25 04:01:24;;;;;;;6.30;5.70;;;;;;;-2.96;100.00;92105.13;4882068;29;20568;-71
2021/12/25 04:04:04;;;;;;;9.53;3.27;;;;;;;-3.19;100.00;92056.56;4883021;29;20665;-71
2021/12/25 04:06:32;;;;;;;4.83;4.30;;;;;;;-2.87;100.00;92091.13;4882762;29;20575;-71
2021/12/25 04:09:03;;;;;;;3.63;3.53;;;;;;;-3.00;100.00;92068.91;4883117;29;20195;-71
2021/12/25 04:11:34;;;;;;;3.73;2.97;;;;;;;-2.71;100.00;92097.69;4882987;29;20477;-71
2021/12/25 04:14:02;;;;;;;4.27;4.03;;;;;;;-2.64;100.00;92100.09;4882793;29;20479;-71
2021/12/25 04:16:30;;;;;;;4.60;3.33;;;;;;;-2.59;100.00;92090.25;4883167;29;20703;-71
2021/12/25 04:18:57;;;;;;;6.77;4.40;;;;;;;-2.56;100.00;92095.16;4883710;29;20557;-71
2021/12/25 04:21:24;;;;;;;2.70;2.50;;;;;;;-2.66;100.00;92089.44;4882735;29;20238;-71
2021/12/25 04:23:52;;;;;;;3.53;3.43;;;;;;;-2.55;100.00;92089.41;4882089;29;20619;-71
2021/12/25 04:26:22;;;;;;;4.40;4.30;;;;;;;-2.51;100.00;92089.38;4883048;29;20309;-71
2021/12/25 04:29:02;;;;;;;5.80;3.50;;;;;;;-2.45;100.00;92087.72;4882542;29;20566;-71
2021/12/25 04:31:45;;;;;;;5.17;4.50;;;;;;;-2.61;100.00;92055.63;4882320;29;20584;-71
2021/12/25 04:49:01;;;;;;;6.90;6.53;;;;;;;-2.46;100.00;92108.31;4862963;29;20277;-71
2021/12/25 05:02:24;;;;;;;6.80;5.77;;;;;;;-2.75;100.00;92142.97;4882588;29;20618;-71
2021/12/25 05:04:58;;;;;;;5.00;4.70;;;;;;;-3.03;100.00;92127.34;4881139;29;20548;-71
2021/12/25 05:07:25;;;;;;;5.93;5.73;;;;;;;-2.93;100.00;92129.00;4881481;29;20599;-71
2021/12/25 05:09:53;;;;;;;7.07;5.07;;;;;;;-2.74;100.00;92149.56;4881248;29;20518;-71
2021/12/25 05:12:21;;;;;;;10.63;7.37;;;;;;;-2.76;100.00;92143.81;4881483;29;20280;-71
2021/12/25 05:14:48;;;;;;;5.90;5.57;;;;;;;-2.63;100.00;92146.25;4881321;29;20625;-71
2021/12/25 05:17:15;;;;;;;7.77;6.80;;;;;;;-2.64;100.00;92139.66;4881430;29;20556;-71
2021/12/25 05:19:42;;;;;;;9.17;8.33;;;;;;;-2.54;100.00;92143.78;4881385;29;20592;-71
2021/12/25 05:22:14;;;;;;;8.47;7.80;;;;;;;-2.55;100.00;92143.78;4880849;29;20560;-71
2021/12/25 05:24:41;;;;;;;3.67;3.57;;;;;;;-2.67;100.00;92142.16;4881351;29;20266;-71
2021/12/25 05:27:21;;;;;;;5.63;5.20;;;;;;;-2.75;100.00;92131.44;4881160;29;20480;-71
2021/12/25 05:29:49;;;;;;;4.50;4.30;;;;;;;-2.62;100.00;92135.56;4881865;29;20579;-71
2021/12/25 05:32:17;;;;;;;10.73;4.53;;;;;;;-2.38;100.00;92151.16;4880838;29;20592;-70
2021/12/25 05:34:44;;;;;;;4.33;4.03;;;;;;;-2.26;100.00;92146.19;4881251;29;20281;-70
2021/12/25 05:39:52;;;;;;;8.10;7.40;;;;;;;-2.17;100.00;92151.91;4945378;23;20560;-70
2021/12/25 05:42:20;;;;;;;23.73;9.97;;;;;;;-2.33;100.00;92132.19;4892983;28;20593;-72
2021/12/25 05:44:48;;;;;;;7.97;6.87;;;;;;;-2.26;100.00;92156.09;4895478;28;20559;-71
2021/12/25 05:47:15;;;;;;;13.47;12.43;;;;;;;-2.29;100.00;92165.97;4898903;28;20574;-71
2021/12/25 05:49:42;;;;;;;15.80;11.30;;;;;;;-2.29;100.00;92165.97;4896826;28;20202;-72
2021/12/25 05:52:10;;;;;;;11.60;10.43;;;;;;;-2.22;100.00;92172.56;4896355;28;20665;-72
2021/12/25 05:54:37;;;;;;;14.03;10.83;;;;;;;-2.27;100.00;92166.78;4893131;28;20590;-72
2021/12/25 05:57:06;;;;;;;9.53;8.73;;;;;;;-2.27;100.00;92171.75;4892458;28;20481;-72
2021/12/25 05:59:33;;;;;;;9.77;9.23;;;;;;;-2.27;100.00;92177.50;4890703;28;20522;-72
2021/12/25 06:02:00;;;;;;;15.20;10.03;;;;;;;-2.33;100.00;92170.09;4892680;28;20233;-72
2021/12/25 06:04:28;;;;;;;13.73;10.17;;;;;;;-2.41;100.00;92166.81;4893826;28;20507;-73
2021/12/25 06:06:55;;;;;;;8.27;7.77;;;;;;;-2.42;100.00;92165.16;4896728;28;20221;-72
2021/12/25 06:09:22;;;;;;;12.57;11.40;;;;;;;-2.29;100.00;92180.81;4890720;28;20206;-72
2021/12/25 06:11:50;;;;;;;10.87;9.83;;;;;;;-2.25;100.00;92168.41;4888817;28;20312;-73
2021/12/25 06:14:20;;;;;;;12.80;9.87;;;;;;;-2.35;100.00;92161.03;4891884;28;20206;-72
2021/12/25 06:16:49;;;;;;;11.07;10.20;;;;;;;-2.38;100.00;92161.88;4892194;28;20605;-72
2021/12/25 06:19:17;;;;;;;11.50;10.60;;;;;;;-2.27;100.00;92166.78;4895758;28;20504;-71
2021/12/25 06:21:45;;;;;;;13.57;10.33;;;;;;;-2.29;100.00;92168.44;4894424;28;20567;-71
2021/12/25 06:24:14;;;;;;;34.17;17.33;;;;;;;-2.22;100.00;92175.03;4893880;28;20276;-70
2021/12/25 06:26:42;;;;;;;15.90;12.80;;;;;;;-2.15;100.00;92166.78;4897424;28;20513;-71
2021/12/25 06:29:09;;;;;;;29.13;18.33;;;;;;;-2.06;100.00;92171.69;4893634;28;20621;-70
2021/12/25 06:31:38;;;;;;;15.97;12.53;;;;;;;-2.05;100.00;92170.84;4895165;28;20630;-71
2021/12/25 06:34:07;;;;;;;42.77;17.73;;;;;;;-1.97;100.00;92184.00;4892955;28;20618;-72
2021/12/25 06:36:35;;;;;;;18.70;14.77;;;;;;;-2.12;100.00;92179.13;4891799;28;20524;-71
2021/12/25 06:39:03;;;;;;;19.40;11.10;;;;;;;-2.12;100.00;92197.25;4894937;28;20676;-71
2021/12/25 06:41:30;;;;;;;12.37;8.83;;;;;;;-2.14;99.89;92190.69;4894282;28;20615;-71
2021/12/25 06:43:58;;;;;;;12.63;11.33;;;;;;;-2.31;100.00;92178.34;4894903;28;20593;-70
2021/12/25 06:46:25;;;;;;;14.33;11.97;;;;;;;-2.41;100.00;92175.88;4889315;28;20493;-71
2021/12/25 06:48:55;;;;;;;21.87;13.30;;;;;;;-2.29;100.00;92183.28;4895747;28;20515;-71
2021/12/25 06:51:22;;;;;;;12.07;10.83;;;;;;;-2.33;100.00;92180.00;4893953;28;20212;-71
2021/12/25 06:53:50;;;;;;;19.27;15.77;;;;;;;-2.36;100.00;92182.47;4896596;28;20478;-70
2021/12/25 06:56:19;;;;;;;48.30;22.20;;;;;;;-2.29;100.00;92178.34;4884455;29;20513;-71
2021/12/25 06:58:46;;;;;;;48.10;27.27;;;;;;;-2.13;100.00;92184.88;4894746;28;20559;-72
2021/12/25 07:01:13;;;;;;;23.10;18.20;;;;;;;-2.06;100.00;92181.56;4897578;28;20578;-72
2021/12/25 07:03:41;;;;;;;43.10;21.10;;;;;;;-1.97;100.00;92191.44;4894050;28;20202;-71
2021/12/25 07:06:10;;;;;;;43.13;24.40;;;;;;;-1.89;100.00;92199.66;4894379;28;20584;-70
2021/12/25 07:08:37;;;;;;;51.17;27.43;;;;;;;-1.78;100.00;92200.44;4890453;29;20458;-70
2021/12/25 07:11:05;;;;;;;52.17;24.23;;;;;;;-1.63;100.00;92213.63;4897427;28;20502;-70
2021/12/25 07:13:32;;;;;;;46.60;23.67;;;;;;;-1.58;100.00;92212.75;4893512;28;20510;-70
2021/12/25 07:15:59;;;;;;;40.00;26.77;;;;;;;-1.48;100.00;92225.91;4890278;28;20239;-71
2021/12/25 07:18:27;;;;;;;47.97;28.03;;;;;;;-1.40;100.00;92232.47;4897427;28;20586;-70
2021/12/25 07:20:54;;;;;;;48.43;30.17;;;;;;;-1.33;100.00;92220.88;4895139;29;20210;-71
2021/12/25 07:23:23;;;;;;;47.50;32.13;;;;;;;-1.26;100.00;92217.56;4890033;28;20229;-70
2021/12/25 07:25:50;;;;;;;75.43;34.87;;;;;;;-1.15;100.00;92219.97;4885529;28;20588;-71
2021/12/25 07:28:18;;;;;;;74.37;40.83;;;;;;;-1.15;100.00;92217.50;4889938;28;20225;-70
2021/12/25 07:30:45;;;;;;;56.87;30.83;;;;;;;-1.22;100.00;92209.25;4888867;29;20590;-70
2021/12/25 07:33:12;;;;;;;55.80;32.07;;;;;;;-1.20;100.00;92194.41;4898596;28;20232;-71
2021/12/25 07:35:40;;;;;;;58.83;31.47;;;;;;;-1.03;100.00;92192.63;4892160;28;20630;-71
2021/12/25 07:38:07;;;;;;;77.43;38.37;;;;;;;-0.98;100.00;92181.84;4889932;29;20253;-71
2021/12/25 07:40:36;;;;;;;72.17;41.53;;;;;;;-0.76;100.00;92189.13;4896088;28;20206;-72
2021/12/25 07:43:04;;;;;;;60.83;36.80;;;;;;;-0.67;100.00;92207.22;4893250;29;20206;-71
2021/12/25 07:45:32;;;;;;;44.23;31.53;;;;;;;-0.64;100.00;92216.31;4897282;28;20494;-71
2021/12/25 07:48:02;;;;;;;39.90;21.07;;;;;;;-0.65;99.96;92222.09;4900996;28;20610;-71
2021/12/25 07:50:33;;;;;;;20.13;18.10;;;;;;;-0.68;98.10;92227.94;4897451;28;20698;-72
2021/12/25 07:53:00;;;;;;;29.93;20.13;;;;;;;-0.68;98.00;92232.88;4896517;28;20571;-72
2021/12/25 07:55:31;;;;;;;57.70;24.20;;;;;;;-0.67;98.52;92223.75;4892399;28;20460;-71
2021/12/25 07:58:00;;;;;;;45.70;25.83;;;;;;;-0.68;99.15;92217.19;4893949;28;20542;-72
2021/12/25 08:00:28;;;;;;;41.13;28.73;;;;;;;-0.57;99.65;92225.38;4898503;28;20483;-71
2021/12/25 08:02:56;;;;;;;45.80;34.53;;;;;;;-0.44;100.00;92215.31;4892695;28;20579;-72
2021/12/25 08:05:24;;;;;;;62.87;38.30;;;;;;;-0.33;100.00;92227.63;4898802;28;20567;-72
2021/12/25 08:07:51;;;;;;;74.07;38.17;;;;;;;-0.20;100.00;92216.75;4894866;28;20224;-73
2021/12/25 08:10:20;;;;;;;81.60;39.87;;;;;;;0.05;100.00;92224.81;4894191;28;20504;-72
2021/12/25 08:12:50;;;;;;;78.10;45.23;;;;;;;0.23;100.00;92226.25;4892329;29;20549;-72
2021/12/25 08:15:21;;;;;;;86.20;46.13;;;;;;;0.33;100.00;92206.28;4897699;28;20550;-73
2021/12/25 08:17:48;;;;;;;84.80;47.63;;;;;;;0.52;100.00;92214.31;4897514;28;20249;-73
2021/12/25 08:20:16;;;;;;;110.13;50.37;;;;;;;0.72;99.71;92224.88;4893031;28;20667;-71
2021/12/25 08:22:44;;;;;;;98.53;52.70;;;;;;;0.88;100.00;92212.22;4894950;28;20479;-73
2021/12/25 08:25:14;;;;;;;78.57;45.20;;;;;;;1.09;99.96;92204.47;4894220;28;20569;-73
2021/12/25 08:27:43;;;;;;;64.23;36.33;;;;;;;1.27;100.00;92200.91;4894050;28;20576;-73
2021/12/25 08:30:14;;;;;;;78.33;44.63;;;;;;;1.53;100.00;92202.13;4886168;29;20235;-72
2021/12/25 08:32:43;;;;;;;101.70;51.23;;;;;;;1.75;100.00;92187.66;4894295;28;20206;-72
2021/12/25 08:35:13;;;;;;;93.23;51.57;;;;;;;1.98;99.80;92194.75;4892423;28;20628;-72
2021/12/25 08:37:40;;;;;;;90.07;50.97;;;;;;;2.20;100.00;92190.22;4893203;28;20481;-73
2021/12/25 08:40:10;;;;;;;116.93;57.37;;;;;;;2.36;99.85;92189.91;4899875;28;20591;-73
2021/12/25 08:42:44;;;;;;;105.83;58.27;;;;;;;2.51;97.97;92203.72;4898123;28;20225;-72
2021/12/25 08:45:30;;;;;;;62.23;39.97;;;;;;;2.34;93.40;92226.47;4892954;28;20577;-74
2021/12/25 08:48:00;;;;;;;39.87;26.67;;;;;;;2.12;90.50;92226.91;4890668;28;20598;-73
2021/12/25 08:50:28;;;;;;;44.60;27.30;;;;;;;1.63;89.36;92212.78;4897983;28;20603;-73
2021/12/25 08:52:55;;;;;;;34.67;20.80;;;;;;;1.37;89.53;92230.59;4897724;28;20577;-72
2021/12/25 08:55:23;;;;;;;22.67;19.77;;;;;;;1.19;90.66;92220.91;4892631;28;20268;-75
2021/12/25 08:57:51;;;;;;;18.53;16.67;;;;;;;1.02;91.47;92218.66;4892372;28;20549;-73
2021/12/25 09:00:19;;;;;;;25.10;20.57;;;;;;;0.91;92.49;92210.50;4892657;28;20577;-74
2021/12/25 09:02:47;;;;;;;19.37;16.53;;;;;;;0.84;92.99;92206.50;4896006;28;20561;-73
2021/12/25 09:05:22;;;;;;;18.90;14.00;;;;;;;0.89;93.41;92211.41;4899090;28;20657;-72
2021/12/25 09:07:50;;;;;;;50.53;27.03;;;;;;;0.70;94.58;92194.22;4897642;28;20581;-73
2021/12/25 09:10:18;;;;;;;55.80;26.13;;;;;;;0.70;95.21;92188.44;4894618;29;20625;-73
2021/12/25 09:12:46;;;;;;;51.27;31.90;;;;;;;0.42;96.02;92153.16;4895677;28;20499;-73
2021/12/25 09:15:13;;;;;;;32.57;24.37;;;;;;;0.63;96.85;92180.22;4890790;28;20609;-73
2021/12/25 09:17:42;;;;;;;43.67;27.57;;;;;;;0.85;96.53;92173.31;4895790;28;20307;-73
2021/12/25 09:20:12;;;;;;;36.07;25.17;;;;;;;1.14;96.79;92175.38;4892182;28;20216;-73
2021/12/25 09:22:41;;;;;;;51.97;29.20;;;;;;;1.36;97.04;92163.44;4887990;28;20635;-73
2021/12/25 09:25:08;;;;;;;66.57;29.43;;;;;;;1.64;97.08;92165.44;4895831;28;20562;-74
2021/12/25 09:27:36;;;;;;;69.93;36.93;;;;;;;1.77;96.13;92166.06;4898351;28;20683;-73
2021/12/25 09:30:04;;;;;;;68.27;38.03;;;;;;;2.08;95.67;92164.66;4894103;28;20479;-74
2021/12/25 09:32:32;;;;;;;63.03;32.70;;;;;;;2.37;95.11;92166.59;4889285;29;20240;-73
2021/12/25 09:35:00;;;;;;;53.10;32.97;;;;;;;2.57;94.41;92162.91;4882084;29;20572;-73
2021/12/25 09:37:27;;;;;;;64.93;35.80;;;;;;;2.82;93.86;92164.03;4895043;28;20495;-74
2021/12/25 09:39:57;;;;;;;62.30;35.37;;;;;;;2.89;91.95;92153.06;4887849;28;20202;-74
2021/12/25 09:42:25;;;;;;;62.23;36.07;;;;;;;3.11;91.72;92155.91;4893960;28;20463;-72
2021/12/25 09:44:52;;;;;;;81.77;43.07;;;;;;;3.22;91.18;92144.00;4896997;28;20285;-72
2021/12/25 09:47:20;;;;;;;85.37;41.30;;;;;;;3.40;90.68;92152.75;4899145;28;20559;-72
2021/12/25 09:49:47;;;;;;;93.37;53.10;;;;;;;3.59;89.64;92154.78;4891940;28;20592;-71
2021/12/25 09:52:15;;;;;;;101.20;54.97;;;;;;;3.83;90.30;92143.34;4879260;29;20560;-72
2021/12/25 09:54:43;;;;;;;128.00;64.13;;;;;;;4.00;89.53;92141.25;4881397;29;20582;-72
2021/12/25 09:57:14;;;;;;;133.03;71.67;;;;;;;4.12;88.95;92120.94;4886545;28;20226;-71
2021/12/25 09:59:41;;;;;;;129.90;63.57;;;;;;;4.40;88.81;92135.19;4887036;29;20637;-72
2021/12/25 10:02:13;;;;;;;146.47;65.00;;;;;;;4.51;87.77;92119.03;4881481;29;20214;-71
2021/12/25 10:04:45;;;;;;;391.10;156.15;;;;;;;5.12;87.26;92137.28;4892844;29;20805;-71
2021/12/25 10:07:14;;;;;;;235.60;103.40;;;;;;;5.86;83.82;92156.63;4891084;28;20650;-71
2021/12/25 10:09:41;;;;;;;98.70;46.10;;;;;;;6.71;79.22;92168.81;4892675;28;20603;-71
2021/12/25 10:12:14;;;;;;;82.30;41.13;;;;;;;7.55;74.22;92191.63;4893271;28;20495;-71
2021/12/25 10:14:44;;;;;;;110.90;43.53;;;;;;;7.88;71.39;92189.53;4892621;29;20490;-73
2021/12/25 10:17:17;;;;;;;103.77;44.93;;;;;;;8.49;69.33;92184.56;4896259;28;20672;-72
2021/12/25 10:19:59;;;;;;;90.80;42.40;;;;;;;9.04;67.41;92200.63;4880979;29;20601;-72
2021/12/25 10:22:27;;;;;;;119.03;47.07;;;;;;;9.28;65.99;92191.19;4878425;29;20211;-72
2021/12/25 10:25:06;;;;;;;113.47;49.87;;;;;;;9.49;65.18;92191.03;4879530;29;20612;-72
2021/12/25 10:27:35;;;;;;;96.23;44.37;;;;;;;10.06;64.46;92194.25;4880242;29;20495;-72
2021/12/25 10:30:06;;;;;;;117.57;51.13;;;;;;;10.26;62.98;92185.75;4880550;29;20972;-72
2021/12/25 10:32:38;;;;;;;176.20;63.00;;;;;;;10.65;62.34;92195.59;4880256;29;20578;-73
2021/12/25 10:35:15;;;;;;;125.80;52.33;;;;;;;10.95;60.90;92173.84;4897863;28;20609;-72
2021/12/25 10:37:43;;;;;;;132.23;54.10;;;;;;;11.33;60.34;92191.28;4898162;28;20614;-72
2021/12/25 10:40:25;;;;;;;150.20;58.87;;;;;;;11.79;59.13;92192.22;4898625;28;20210;-72
2021/12/25 10:42:56;;;;;;;125.73;51.10;;;;;;;12.02;57.40;92191.78;4898824;28;20268;-72
2021/12/25 10:45:26;;;;;;;127.70;46.83;;;;;;;12.29;56.46;92182.66;4898890;28;20194;-72
2021/12/25 10:48:06;;;;;;;122.73;51.73;;;;;;;12.77;55.11;92181.59;4898615;28;20612;-72
2021/12/25 10:50:39;;;;;;;118.78;49.15;;;;;;;12.86;55.37;92175.16;4898476;28;20487;-72
2021/12/25 10:53:26;;;;;;;143.33;56.20;;;;;;;12.75;55.13;92178.31;4899521;29;20570;-72
2021/12/25 10:55:54;;;;;;;191.40;74.23;;;;;;;12.35;56.28;92167.09;4899242;28;20562;-72
2021/12/25 10:58:25;;;;;;;168.97;66.53;;;;;;;11.68;57.15;92157.34;4884205;28;20628;-71
2021/12/25 11:00:56;;;;;;;171.50;68.90;;;;;;;11.53;58.65;92148.06;4888316;29;20473;-71
2021/12/25 11:03:32;;;;;;;170.87;69.63;;;;;;;11.68;58.48;92147.22;4885184;29;20486;-71
2021/12/25 11:06:10;;;;;;;166.97;65.77;;;;;;;12.12;58.22;92131.31;4897832;28;20824;-72
2021/12/25 11:08:38;;;;;;;165.17;66.83;;;;;;;12.68;56.65;92143.25;4879231;29;20294;-72
2021/12/25 11:11:09;;;;;;;176.45;66.07;;;;;;;12.82;56.14;92141.56;4880038;29;20564;-73
2021/12/25 11:13:40;;;;;;;171.77;69.30;;;;;;;12.63;58.00;92117.38;4880227;29;20491;-72
2021/12/25 11:16:27;;;;;;;181.13;75.50;;;;;;;12.53;58.06;92106.16;4898284;28;20567;-72
2021/12/25 11:19:05;;;;;;;214.00;86.83;;;;;;;12.72;58.01;92115.13;4896247;28;20206;-71
2021/12/25 11:21:34;;;;;;;189.70;79.57;;;;;;;12.81;57.30;92112.06;4884613;28;20560;-72
2021/12/25 11:24:14;;;;;;;199.15;84.88;;;;;;;13.12;56.94;92107.72;4890367;28;20718;-72
2021/12/25 11:26:43;;;;;;;247.82;91.60;;;;;;;13.72;56.72;92109.94;4897920;28;20457;-72
2021/12/25 11:29:15;;;;;;;134.80;55.78;;;;;;;14.48;56.69;92103.31;4899465;28;20198;-72
2021/12/25 11:31:44;;;;;;;133.32;57.38;;;;;;;15.04;55.41;92114.78;4893120;28;20564;-72
2021/12/25 11:34:11;;;;;;;72.28;30.35;;;;;;;15.83;54.51;92118.69;4879501;29;20466;-72
2021/12/25 11:36:41;;;;;;;87.57;31.92;;;;;;;16.54;52.99;92126.25;4888899;29;20634;-72
2021/12/25 11:39:09;;;;;;;80.40;34.45;;;;;;;16.80;51.42;92124.34;4894528;28;20594;-72
2021/12/25 11:41:37;;;;;;;82.18;32.45;;;;;;;17.11;49.54;92122.91;4890140;29;20658;-72
2021/12/25 11:44:07;;;;;;;75.50;32.63;;;;;;;17.60;47.29;92141.22;4897248;28;20639;-72
2021/12/25 11:46:44;;;;;;;79.78;35.13;;;;;;;18.03;46.43;92133.59;4884286;29;20588;-72
2021/12/25 11:49:14;;;;;;;81.97;32.97;;;;;;;18.18;44.97;92134.94;4880438;29;20531;-72
2021/12/25 11:51:44;;;;;;;33.05;20.17;;;;;;;18.58;45.20;92109.56;4885265;29;20293;-72
2021/12/25 11:54:55;;;;;;;31.92;16.42;;;;;;;19.05;44.48;92121.00;4897548;28;20456;-73
2021/12/25 11:57:49;;;;;;;29.10;15.43;;;;;;;19.25;43.50;92126.25;4895738;28;20230;-72
2021/12/25 12:00:34;;;;;;;31.83;16.88;;;;;;;19.04;42.39;92124.50;4879226;29;20310;-72
2021/12/25 12:03:04;;;;;;;31.80;16.15;;;;;;;18.79;42.93;92116.41;4891770;28;20499;-72
2021/12/25 12:05:33;;;;;;;29.80;13.00;;;;;;;18.11;44.62;92094.63;4888940;29;20202;-72
2021/12/25 12:08:05;;;;;;;22.90;11.07;;;;;;;16.30;50.07;92064.31;4888249;28;20491;-73
2021/12/25 12:10:55;;;;;;;21.67;12.35;;;;;;;15.54;51.41;92057.91;4895247;28;20572;-72
2021/12/25 12:13:26;;;;;;;25.08;12.65;;;;;;;15.17;52.60;92048.59;4892699;29;20260;-72
2021/12/25 12:15:55;;;;;;;52.47;20.52;;;;;;;14.91;53.67;92047.88;4895439;28;20480;-72
2021/12/25 12:18:36;;;;;;;29.15;14.82;;;;;;;14.49;54.83;92042.22;4887165;29;20476;-72
2021/12/25 12:21:09;;;;;;;42.42;18.98;;;;;;;14.24;55.05;92044.72;4891103;28;20566;-72
2021/12/25 12:23:51;;;;;;;34.75;17.08;;;;;;;13.82;55.77;92020.38;4895366;28;20229;-73
2021/12/25 12:26:52;;;;;;;34.80;15.90;;;;;;;13.40;56.88;92018.06;4894704;28;20615;-73
2021/12/25 12:29:51;;;;;;;21.65;12.23;;;;;;;13.14;60.03;92015.41;4897958;28;20482;-73